createdAt,value
2023-05-25T00:01:37.955Z,15.80
2023-05-25T00:04:05.431Z,15.80
2023-05-25T00:06:33.298Z,15.90
2023-05-25T00:09:00.589Z,15.80
2023-05-25T00:11:27.597Z,15.80
2023-05-25T00:13:54.861Z,15.80
2023-05-25T00:16:21.900Z,16.00
2023-05-25T00:18:49.292Z,15.90
2023-05-25T00:21:16.757Z,16.00
2023-05-25T00:23:44.144Z,16.00
2023-05-25T00:26:11.160Z,16.00
2023-05-25T00:28:38.586Z,16.10
2023-05-25T00:31:05.731Z,16.00
2023-05-25T00:33:32.812Z,16.00
2023-05-25T00:36:00.258Z,16.00
2023-05-25T00:38:27.542Z,16.00
2023-05-25T00:40:57.771Z,15.90
2023-05-25T00:43:24.760Z,16.00
2023-05-25T00:45:51.999Z,16.10
2023-05-25T00:48:19.144Z,16.20
2023-05-25T00:50:46.593Z,16.50
2023-05-25T00:53:14.656Z,16.50
2023-05-25T00:55:54.785Z,16.40
2023-05-25T00:58:27.181Z,16.30
2023-05-25T01:00:57.868Z,16.20
2023-05-25T01:03:29.816Z,16.10
2023-05-25T01:05:58.155Z,16.10
2023-05-25T01:08:27.044Z,16.10
2023-05-25T01:10:55.723Z,15.90
2023-05-25T01:13:23.559Z,15.80
2023-05-25T01:15:52.631Z,15.70
2023-05-25T01:18:19.995Z,15.70
2023-05-25T01:20:59.056Z,15.70
2023-05-25T01:23:33.646Z,15.70
2023-05-25T01:26:04.484Z,15.70
2023-05-25T01:28:40.350Z,15.70
2023-05-25T01:31:09.462Z,15.70
2023-05-25T01:33:38.168Z,15.70
2023-05-25T01:36:06.262Z,15.80
2023-05-25T01:38:33.994Z,15.80
2023-05-25T01:41:00.842Z,15.80
2023-05-25T01:43:27.746Z,15.70
2023-05-25T01:46:02.591Z,15.70
2023-05-25T01:48:51.112Z,15.70
2023-05-25T01:51:26.971Z,15.50
2023-05-25T01:53:59.991Z,15.50
2023-05-25T01:56:29.107Z,15.50
2023-05-25T01:58:59.079Z,15.50
2023-05-25T02:01:28.051Z,15.50
2023-05-25T02:03:56.500Z,15.40
2023-05-25T02:06:23.906Z,15.40
2023-05-25T02:08:51.390Z,15.50
2023-05-25T02:11:18.272Z,15.40
2023-05-25T02:13:45.527Z,15.50
2023-05-25T02:16:12.435Z,15.50
2023-05-25T02:18:39.530Z,15.60
2023-05-25T02:21:06.452Z,15.60
2023-05-25T02:23:33.457Z,15.60
2023-05-25T02:26:00.484Z,15.60
2023-05-25T02:28:27.833Z,15.60
2023-05-25T02:30:54.802Z,15.60
2023-05-25T02:33:22.316Z,15.60
2023-05-25T02:35:49.965Z,15.60
2023-05-25T02:38:17.070Z,15.50
2023-05-25T02:40:46.253Z,15.70
2023-05-25T02:43:13.179Z,15.70
2023-05-25T02:45:40.681Z,15.80
2023-05-25T02:48:07.653Z,15.80
2023-05-25T02:50:34.634Z,15.80
2023-05-25T02:53:01.587Z,15.80
2023-05-25T02:55:28.902Z,15.70
2023-05-25T02:57:55.924Z,15.70
2023-05-25T03:00:23.777Z,15.70
2023-05-25T03:02:50.865Z,16.00
2023-05-25T03:05:18.303Z,16.00
2023-05-25T03:07:45.981Z,15.90
2023-05-25T03:10:13.293Z,15.90
2023-05-25T03:12:40.294Z,16.00
2023-05-25T03:15:09.331Z,16.10
2023-05-25T03:17:36.704Z,16.10
2023-05-25T03:20:04.369Z,16.20
2023-05-25T03:22:31.447Z,16.10
2023-05-25T03:24:59.728Z,16.00
2023-05-25T03:27:26.594Z,16.00
2023-05-25T03:29:53.853Z,16.00
2023-05-25T03:32:21.768Z,16.00
2023-05-25T03:34:48.783Z,16.00
2023-05-25T03:37:15.772Z,15.90
2023-05-25T03:39:43.141Z,15.90
2023-05-25T03:42:09.976Z,15.90
2023-05-25T03:44:37.917Z,15.80
2023-05-25T03:47:05.962Z,15.80
2023-05-25T03:49:33.327Z,15.80
2023-05-25T03:52:01.351Z,15.80
2023-05-25T03:54:28.507Z,15.80
2023-05-25T03:56:56.850Z,15.80
2023-05-25T03:59:25.502Z,15.90
2023-05-25T04:01:52.794Z,16.00
2023-05-25T04:04:20.684Z,16.10
2023-05-25T04:06:49.057Z,16.20
2023-05-25T04:09:16.251Z,16.30
2023-05-25T04:11:44.002Z,16.30
2023-05-25T04:14:11.463Z,16.40
2023-05-25T04:16:41.390Z,16.50
2023-05-25T04:19:08.530Z,16.50
2023-05-25T04:21:36.334Z,16.60
2023-05-25T04:24:03.446Z,16.60
2023-05-25T04:26:30.497Z,16.60
2023-05-25T04:28:58.373Z,16.60
2023-05-25T04:31:27.167Z,16.70
2023-05-25T04:33:56.189Z,16.70
2023-05-25T04:36:24.123Z,16.80
2023-05-25T04:38:52.280Z,16.80
2023-05-25T04:41:19.641Z,16.90
2023-05-25T04:44:03.610Z,16.90
2023-05-25T04:46:37.742Z,17.00
2023-05-25T04:49:05.735Z,17.20
2023-05-25T04:51:32.888Z,17.30
2023-05-25T04:53:59.913Z,17.30
2023-05-25T04:56:27.261Z,17.40
2023-05-25T04:58:54.617Z,17.50
2023-05-25T05:01:21.586Z,17.70
2023-05-25T05:03:48.547Z,17.70
2023-05-25T05:06:15.514Z,17.80
2023-05-25T05:08:42.448Z,17.90
2023-05-25T05:11:09.365Z,18.00
2023-05-25T05:13:36.378Z,18.00
2023-05-25T05:16:03.792Z,18.10
2023-05-25T05:18:31.433Z,18.20
2023-05-25T05:20:58.374Z,18.20
2023-05-25T05:23:25.704Z,18.40
2023-05-25T05:25:52.595Z,18.40
2023-05-25T05:28:19.553Z,18.60
2023-05-25T05:30:47.544Z,18.70
2023-05-25T05:33:14.808Z,18.80
2023-05-25T05:35:42.436Z,19.20
2023-05-25T05:38:09.647Z,19.30
2023-05-25T05:40:36.786Z,19.20
2023-05-25T05:43:03.674Z,19.10
2023-05-25T05:45:30.854Z,19.20
2023-05-25T05:47:57.869Z,19.30
2023-05-25T05:50:24.861Z,19.40
2023-05-25T05:52:53.731Z,19.50
2023-05-25T05:55:21.168Z,19.50
2023-05-25T05:57:48.171Z,19.60
2023-05-25T06:00:16.324Z,19.60
2023-05-25T06:02:43.514Z,19.60
2023-05-25T06:05:10.605Z,19.60
2023-05-25T06:07:38.589Z,19.70
2023-05-25T06:10:06.280Z,19.90
2023-05-25T06:12:33.367Z,20.00
2023-05-25T06:15:00.267Z,20.20
2023-05-25T06:17:29.673Z,20.30
2023-05-25T06:19:56.868Z,20.10
2023-05-25T06:22:27.837Z,20.20
2023-05-25T06:24:55.073Z,20.40
2023-05-25T06:27:23.370Z,20.30
2023-05-25T06:29:50.893Z,20.40
2023-05-25T06:32:17.914Z,20.50
2023-05-25T06:34:44.965Z,20.70
2023-05-25T06:37:12.342Z,21.00
2023-05-25T06:39:40.665Z,20.90
2023-05-25T06:42:07.901Z,21.00
2023-05-25T06:44:35.030Z,21.20
2023-05-25T06:47:02.757Z,21.30
2023-05-25T06:49:30.485Z,21.40
2023-05-25T06:51:57.824Z,21.40
2023-05-25T06:54:24.776Z,21.60
2023-05-25T06:56:51.883Z,21.70
2023-05-25T06:59:19.067Z,21.70
2023-05-25T07:01:47.482Z,21.70
2023-05-25T07:04:15.028Z,21.90
2023-05-25T07:06:42.002Z,22.10
2023-05-25T07:09:08.885Z,22.40
2023-05-25T07:11:35.829Z,22.60
2023-05-25T07:14:03.287Z,22.70
2023-05-25T07:16:30.285Z,22.90
2023-05-25T07:18:59.318Z,23.20
2023-05-25T07:21:33.387Z,23.30
2023-05-25T07:24:00.782Z,23.30
2023-05-25T07:26:28.053Z,23.20
2023-05-25T07:28:55.089Z,23.30
2023-05-25T07:31:22.679Z,23.20
2023-05-25T07:33:49.972Z,23.20
2023-05-25T07:36:17.342Z,23.30
2023-05-25T07:38:44.289Z,23.30
2023-05-25T07:41:13.581Z,23.20
2023-05-25T07:43:40.742Z,23.40
2023-05-25T07:46:07.737Z,23.50
2023-05-25T07:48:34.845Z,23.70
2023-05-25T07:51:02.253Z,23.70
2023-05-25T07:53:29.632Z,23.30
2023-05-25T07:55:57.120Z,23.40
2023-05-25T07:58:23.986Z,23.40
2023-05-25T08:00:51.800Z,23.40
2023-05-25T08:03:20.931Z,23.50
2023-05-25T08:05:51.937Z,23.50
2023-05-25T08:08:19.461Z,23.60
2023-05-25T08:10:46.378Z,23.60
2023-05-25T08:13:13.358Z,23.70
2023-05-25T08:15:40.753Z,23.60
2023-05-25T08:18:08.244Z,23.60
2023-05-25T08:20:35.453Z,23.50
2023-05-25T08:23:02.506Z,23.50
2023-05-25T08:25:29.550Z,23.50
2023-05-25T08:27:56.850Z,23.30
2023-05-25T08:30:24.269Z,23.20
2023-05-25T08:32:51.572Z,23.20
2023-05-25T08:35:18.759Z,23.40
2023-05-25T08:37:45.745Z,23.50
2023-05-25T08:40:17.130Z,23.40
2023-05-25T08:42:45.324Z,23.00
2023-05-25T08:45:26.566Z,23.00
2023-05-25T08:48:23.809Z,23.20
2023-05-25T08:51:08.138Z,23.30
2023-05-25T08:53:39.358Z,23.30
2023-05-25T08:56:09.310Z,23.30
2023-05-25T08:58:44.275Z,23.50
2023-05-25T09:01:15.434Z,23.70
2023-05-25T09:03:44.131Z,23.90
2023-05-25T09:06:11.806Z,23.90
2023-05-25T09:08:39.829Z,23.60
2023-05-25T09:11:07.948Z,23.60
2023-05-25T09:13:36.328Z,23.60
2023-05-25T09:16:03.491Z,23.70
2023-05-25T09:18:30.597Z,23.90
2023-05-25T09:20:57.943Z,23.90
2023-05-25T09:23:25.315Z,24.10
2023-05-25T09:25:54.027Z,24.20
2023-05-25T09:30:51.580Z,24.30
2023-05-25T09:33:19.284Z,24.50
2023-05-25T09:35:46.847Z,24.70
2023-05-25T09:38:15.801Z,24.80
2023-05-25T09:40:44.046Z,25.00
2023-05-25T09:43:17.218Z,25.20
2023-05-25T09:45:49.447Z,25.30
2023-05-25T09:48:17.924Z,25.30
2023-05-25T09:50:48.048Z,25.20
2023-05-25T09:53:16.618Z,25.30
2023-05-25T09:55:53.045Z,25.40
2023-05-25T09:58:24.064Z,25.50
2023-05-25T10:00:56.482Z,25.40
2023-05-25T10:03:23.512Z,25.40
2023-05-25T10:05:51.947Z,25.50
2023-05-25T10:08:21.897Z,25.60
2023-05-25T10:10:50.201Z,25.90
2023-05-25T10:13:21.989Z,26.00
2023-05-25T10:15:54.036Z,26.20
2023-05-25T10:18:28.975Z,26.30
2023-05-25T10:21:04.148Z,26.00
2023-05-25T10:23:42.807Z,26.50
2023-05-25T10:26:12.884Z,26.40
2023-05-25T10:28:43.128Z,26.30
2023-05-25T10:31:10.852Z,26.40
2023-05-25T10:33:37.884Z,26.60
2023-05-25T10:36:10.594Z,26.60
2023-05-25T10:38:40.178Z,26.80
2023-05-25T10:41:11.083Z,26.90
2023-05-25T10:43:39.947Z,27.00
2023-05-25T10:46:07.593Z,27.00
2023-05-25T10:48:39.206Z,27.00
2023-05-25T10:51:09.078Z,27.10
2023-05-25T10:53:37.506Z,27.30
2023-05-25T10:56:06.765Z,27.50
2023-05-25T10:58:34.469Z,27.40
2023-05-25T11:01:08.916Z,27.30
2023-05-25T11:03:45.305Z,27.30
2023-05-25T11:06:16.492Z,27.30
2023-05-25T11:08:57.364Z,27.50
2023-05-25T11:11:42.937Z,27.50
2023-05-25T11:14:23.799Z,27.40
2023-05-25T11:17:14.524Z,27.70
2023-05-25T11:19:43.301Z,27.90
2023-05-25T11:22:21.114Z,28.10
2023-05-25T11:24:50.125Z,28.30
2023-05-25T11:27:27.363Z,28.60
2023-05-25T11:29:56.714Z,28.50
2023-05-25T11:32:26.091Z,28.70
2023-05-25T11:34:54.178Z,29.10
2023-05-25T11:37:24.906Z,29.20
2023-05-25T11:39:52.772Z,29.10
2023-05-25T11:42:24.633Z,28.90
2023-05-25T11:44:52.310Z,29.00
2023-05-25T11:47:23.352Z,29.10
2023-05-25T11:49:50.720Z,29.20
2023-05-25T11:52:19.860Z,29.20
2023-05-25T11:54:47.396Z,29.40
2023-05-25T11:57:25.744Z,29.30
2023-05-25T11:59:57.926Z,29.30
2023-05-25T12:02:25.452Z,29.00
2023-05-25T12:05:03.821Z,28.80
2023-05-25T12:07:34.294Z,28.70
2023-05-25T12:10:09.633Z,28.80
2023-05-25T12:12:43.648Z,29.00
2023-05-25T12:15:21.930Z,29.10
2023-05-25T12:17:50.193Z,29.10
2023-05-25T12:20:18.264Z,29.50
2023-05-25T12:22:46.533Z,29.90
2023-05-25T12:25:14.747Z,30.30
2023-05-25T12:27:41.830Z,30.60
2023-05-25T12:30:10.542Z,31.10
2023-05-25T12:33:02.571Z,31.80
2023-05-25T12:35:44.083Z,32.40
2023-05-25T12:38:15.697Z,32.40
2023-05-25T12:40:42.983Z,32.90
2023-05-25T12:43:14.351Z,33.40
2023-05-25T12:45:44.677Z,33.90
2023-05-25T12:48:12.083Z,34.90
2023-05-25T12:50:39.271Z,35.70
2023-05-25T12:53:06.429Z,35.60
2023-05-25T12:55:35.740Z,35.20
2023-05-25T12:58:05.565Z,35.30
2023-05-25T13:00:38.240Z,35.80
2023-05-25T13:03:09.209Z,36.80
2023-05-25T13:05:38.143Z,37.10
2023-05-25T13:08:06.969Z,37.80
2023-05-25T13:10:35.643Z,37.40
2023-05-25T13:13:03.899Z,37.90
2023-05-25T13:15:30.977Z,39.30
2023-05-25T13:17:58.730Z,40.70
2023-05-25T13:20:27.465Z,41.30
2023-05-25T13:22:58.162Z,42.10
2023-05-25T13:25:27.894Z,42.80
2023-05-25T13:27:58.055Z,44.10
2023-05-25T13:30:26.752Z,45.10
2023-05-25T13:32:53.935Z,45.80
2023-05-25T13:35:37.714Z,46.60
2023-05-25T13:38:05.836Z,47.10
2023-05-25T13:40:33.025Z,47.40
2023-05-25T13:42:59.864Z,47.50
2023-05-25T13:45:27.625Z,46.10
2023-05-25T13:47:54.689Z,45.90
2023-05-25T13:50:21.655Z,46.90
2023-05-25T13:52:49.220Z,47.70
2023-05-25T13:55:16.194Z,49.00
2023-05-25T13:57:43.100Z,49.70
2023-05-25T14:00:10.365Z,50.00
2023-05-25T14:02:38.007Z,50.90
2023-05-25T14:05:05.423Z,51.00
2023-05-25T14:07:32.776Z,51.80
2023-05-25T14:10:00.239Z,51.50
2023-05-25T14:12:28.018Z,51.00
2023-05-25T14:14:55.088Z,50.50
2023-05-25T14:17:22.281Z,51.00
2023-05-25T14:19:49.644Z,51.90
2023-05-25T14:22:17.084Z,52.40
2023-05-25T14:24:44.506Z,52.10
2023-05-25T14:27:11.548Z,51.30
2023-05-25T14:29:39.388Z,51.20
2023-05-25T14:32:06.362Z,51.80
2023-05-25T14:34:33.313Z,51.80
2023-05-25T14:37:00.372Z,52.70
2023-05-25T14:39:27.730Z,52.30
2023-05-25T14:41:55.218Z,51.60
2023-05-25T14:44:22.511Z,51.90
2023-05-25T14:46:49.497Z,52.40
2023-05-25T14:49:17.330Z,52.30
2023-05-25T14:51:44.337Z,52.50
2023-05-25T14:54:13.698Z,52.90
2023-05-25T14:56:41.885Z,52.10
2023-05-25T14:59:08.927Z,51.80
2023-05-25T15:01:37.106Z,51.10
2023-05-25T15:04:04.703Z,51.40
2023-05-25T15:06:34.482Z,51.30
2023-05-25T15:09:01.470Z,51.30
2023-05-25T15:11:28.839Z,50.60
2023-05-25T15:13:57.854Z,50.80
2023-05-25T15:16:25.047Z,50.30
2023-05-25T15:18:52.400Z,50.50
2023-05-25T15:21:19.422Z,50.20
2023-05-25T15:23:46.366Z,49.90
2023-05-25T15:26:14.161Z,50.00
2023-05-25T15:28:41.026Z,49.00
2023-05-25T15:31:07.970Z,48.20
2023-05-25T15:33:51.565Z,45.30
2023-05-25T15:36:21.250Z,42.40
2023-05-25T15:38:49.564Z,41.00
2023-05-25T15:41:17.500Z,43.30
2023-05-25T15:43:58.673Z,45.30
2023-05-25T15:46:26.230Z,45.00
2023-05-25T15:48:53.929Z,45.60
2023-05-25T15:51:21.350Z,46.00
2023-05-25T15:53:48.716Z,46.40
2023-05-25T15:56:15.819Z,46.30
2023-05-25T15:58:45.164Z,46.10
2023-05-25T16:01:13.868Z,46.30
2023-05-25T16:03:43.165Z,46.70
2023-05-25T16:06:11.214Z,46.70
2023-05-25T16:08:38.103Z,46.10
2023-05-25T16:11:05.379Z,46.10
2023-05-25T16:13:32.323Z,46.30
2023-05-25T16:16:00.829Z,46.00
2023-05-25T16:18:28.082Z,45.50
2023-05-25T16:20:58.458Z,45.30
2023-05-25T16:23:25.428Z,44.80
2023-05-25T16:25:52.513Z,44.60
2023-05-25T16:28:19.897Z,44.00
2023-05-25T16:30:46.972Z,43.80
2023-05-25T16:33:13.888Z,43.20
2023-05-25T16:35:41.271Z,41.70
2023-05-25T16:38:08.425Z,41.30
2023-05-25T16:40:37.071Z,39.70
2023-05-25T16:43:04.039Z,37.00
2023-05-25T16:45:31.143Z,34.60
2023-05-25T16:47:58.519Z,33.00
2023-05-25T16:50:25.997Z,32.10
2023-05-25T16:52:52.846Z,30.90
2023-05-25T16:55:19.817Z,30.40
2023-05-25T16:57:46.791Z,30.30
2023-05-25T17:00:14.343Z,30.70
2023-05-25T17:02:41.474Z,31.30
2023-05-25T17:05:09.309Z,32.80
2023-05-25T17:07:36.534Z,33.70
2023-05-25T17:10:03.779Z,34.10
2023-05-25T17:12:31.563Z,34.20
2023-05-25T17:14:58.566Z,32.80
2023-05-25T17:17:28.083Z,31.30
2023-05-25T17:19:55.666Z,30.50
2023-05-25T17:22:22.823Z,29.90
2023-05-25T17:24:49.697Z,29.20
2023-05-25T17:27:16.727Z,28.60
2023-05-25T17:29:43.703Z,28.40
2023-05-25T17:32:10.860Z,29.00
2023-05-25T17:34:37.846Z,29.00
2023-05-25T17:37:05.512Z,29.40
2023-05-25T17:39:32.397Z,29.50
2023-05-25T17:41:59.718Z,29.50
2023-05-25T17:44:26.978Z,29.50
2023-05-25T17:46:53.901Z,29.40
2023-05-25T17:49:21.323Z,29.20
2023-05-25T17:51:48.640Z,29.00
2023-05-25T17:54:18.669Z,28.70
2023-05-25T17:56:46.506Z,28.40
2023-05-25T17:59:13.445Z,28.00
2023-05-25T18:01:40.900Z,27.70
2023-05-25T18:04:08.532Z,27.40
2023-05-25T18:06:36.927Z,27.10
2023-05-25T18:09:04.383Z,26.60
2023-05-25T18:11:33.640Z,26.10
2023-05-25T18:14:01.083Z,25.50
2023-05-25T18:16:28.082Z,25.10
2023-05-25T18:18:55.028Z,24.80
2023-05-25T18:21:21.955Z,24.60
2023-05-25T18:23:48.853Z,24.40
2023-05-25T18:26:15.836Z,24.20
2023-05-25T18:28:42.835Z,23.90
2023-05-25T18:31:09.897Z,23.60
2023-05-25T18:33:36.840Z,23.40
2023-05-25T18:36:05.238Z,23.30
2023-05-25T18:38:32.126Z,23.10
2023-05-25T18:40:59.257Z,22.90
2023-05-25T18:43:26.514Z,22.70
2023-05-25T18:45:53.890Z,22.60
2023-05-25T18:48:23.674Z,22.60
2023-05-25T18:50:51.402Z,22.50
2023-05-25T18:53:18.393Z,22.30
2023-05-25T18:55:46.001Z,22.20
2023-05-25T18:58:13.132Z,22.20
2023-05-25T19:00:40.046Z,22.00
2023-05-25T19:03:07.085Z,21.90
2023-05-25T19:05:34.902Z,21.90
2023-05-25T19:08:01.781Z,21.80
2023-05-25T19:10:28.745Z,21.70
2023-05-25T19:12:55.768Z,21.60
2023-05-25T19:15:22.894Z,21.60
2023-05-25T19:17:49.929Z,21.50
2023-05-25T19:20:17.204Z,21.50
2023-05-25T19:22:44.355Z,21.40
2023-05-25T19:25:11.882Z,21.30
2023-05-25T19:27:39.227Z,21.30
2023-05-25T19:30:07.071Z,21.40
2023-05-25T19:32:33.997Z,21.40
2023-05-25T19:35:00.980Z,21.40
2023-05-25T19:37:28.116Z,21.30
2023-05-25T19:39:55.529Z,21.00
2023-05-25T19:42:22.499Z,20.90
2023-05-25T19:44:49.451Z,20.80
2023-05-25T19:47:17.176Z,20.70
2023-05-25T19:49:44.203Z,20.60
2023-05-25T19:52:11.130Z,20.50
2023-05-25T19:54:38.579Z,20.50
2023-05-25T19:57:06.840Z,20.50
2023-05-25T19:59:33.905Z,20.30
2023-05-25T20:02:01.221Z,20.20
2023-05-25T20:04:28.168Z,20.10
2023-05-25T20:06:55.332Z,20.10
2023-05-25T20:09:30.220Z,20.00
2023-05-25T20:11:58.556Z,19.90
2023-05-25T20:14:25.847Z,19.90
2023-05-25T20:16:55.400Z,19.90
2023-05-25T20:19:23.318Z,19.80
2023-05-25T20:21:50.585Z,19.70
2023-05-25T20:24:18.111Z,19.80
2023-05-25T20:26:45.133Z,19.70
2023-05-25T20:29:12.479Z,19.70
2023-05-25T20:31:40.348Z,19.70
2023-05-25T20:34:07.848Z,19.80
2023-05-25T20:36:34.775Z,19.70
2023-05-25T20:39:03.283Z,19.80
2023-05-25T20:41:30.819Z,19.70
2023-05-25T20:43:57.951Z,19.60
2023-05-25T20:46:26.159Z,19.60
2023-05-25T20:48:53.659Z,19.50
2023-05-25T20:51:21.787Z,19.50
2023-05-25T20:53:48.859Z,19.50
2023-05-25T20:56:16.224Z,19.50
2023-05-25T20:58:44.902Z,19.30
2023-05-25T21:01:11.932Z,19.30
2023-05-25T21:03:39.986Z,18.80
2023-05-25T21:06:07.131Z,19.20
2023-05-25T21:08:34.776Z,19.00
2023-05-25T21:11:01.923Z,19.00
2023-05-25T21:13:28.905Z,19.10
2023-05-25T21:15:56.532Z,19.10
2023-05-25T21:18:23.772Z,19.00
2023-05-25T21:20:51.113Z,19.00
2023-05-25T21:23:18.533Z,18.90
2023-05-25T21:25:46.004Z,18.90
2023-05-25T21:28:13.251Z,18.80
2023-05-25T21:30:40.646Z,18.70
2023-05-25T21:33:07.595Z,18.80
2023-05-25T21:35:34.616Z,18.80
2023-05-25T21:38:01.557Z,18.70
2023-05-25T21:40:28.710Z,18.70
2023-05-25T21:42:55.724Z,18.50
2023-05-25T21:45:23.211Z,18.40
2023-05-25T21:47:50.293Z,18.20
2023-05-25T21:50:17.483Z,18.10
2023-05-25T21:52:44.420Z,18.00
2023-05-25T21:55:11.543Z,17.90
2023-05-25T21:57:38.451Z,17.80
2023-05-25T22:00:06.575Z,17.80
2023-05-25T22:02:33.698Z,17.80
2023-05-25T22:05:00.830Z,17.90
2023-05-25T22:07:27.868Z,17.90
2023-05-25T22:09:54.879Z,17.90
2023-05-25T22:12:22.140Z,17.90
2023-05-25T22:14:49.016Z,17.80
2023-05-25T22:17:17.431Z,17.80
2023-05-25T22:19:47.069Z,17.70
2023-05-25T22:22:19.197Z,17.70
2023-05-25T22:24:46.119Z,17.70
2023-05-25T22:27:13.434Z,17.70
2023-05-25T22:29:40.431Z,17.70
2023-05-25T22:32:07.358Z,17.70
2023-05-25T22:34:34.725Z,17.70
2023-05-25T22:37:02.506Z,17.60
2023-05-25T22:39:29.430Z,17.60
2023-05-25T22:41:56.387Z,17.60
2023-05-25T22:44:23.641Z,17.60
2023-05-25T22:46:50.630Z,17.50
2023-05-25T22:49:18.083Z,17.60
2023-05-25T22:51:45.183Z,17.60
2023-05-25T22:54:13.297Z,17.50
2023-05-25T22:56:40.367Z,17.50
2023-05-25T22:59:07.395Z,17.50
2023-05-25T23:01:34.388Z,17.50
2023-05-25T23:04:01.515Z,17.50
2023-05-25T23:06:29.030Z,17.30
2023-05-25T23:08:57.674Z,17.30
2023-05-25T23:11:27.138Z,17.30
2023-05-25T23:13:54.775Z,17.20
2023-05-25T23:16:21.721Z,17.20
2023-05-25T23:18:49.184Z,17.30
2023-05-25T23:21:16.527Z,17.40
2023-05-25T23:23:43.577Z,17.40
2023-05-25T23:26:10.580Z,17.40
2023-05-25T23:28:37.572Z,17.30
2023-05-25T23:31:04.732Z,17.10
2023-05-25T23:33:31.816Z,17.10
2023-05-25T23:35:59.787Z,17.00
2023-05-25T23:38:26.698Z,17.00
2023-05-25T23:40:53.686Z,17.00
2023-05-25T23:43:21.244Z,16.90
2023-05-25T23:45:48.536Z,16.90
2023-05-25T23:48:15.669Z,16.80
2023-05-25T23:50:43.031Z,16.80
2023-05-25T23:53:10.074Z,16.90
2023-05-25T23:55:37.080Z,16.80
2023-05-25T23:58:03.937Z,16.80
